Dresden, NY

2:48 AM EDT on September 17, 2014 (GMT -0400)
South Bay | Change Station
CLOSE
Current Station
Personal Weather Station
Location: Whitehall, NY
Elevation: 131 ft
Nearby Weather Stations

Elev 131 ft 43.57 °N, 73.43 °W | Updated 1 second ago

Fog
Fog
48.3 °F
Feels Like 48 °F
N
2.0
Wind Variable Wind from WSW
Gusts 6.0 mph

Today
High -- | Low -- °F
--% Chance of Precip.
Yesterday
High -- | Low -- °F
Precip. -- in
6:35 AM 7:00 PM
Last Quarter, 38% visible
Pressure 30.02 in
Visibility 4.0 miles
Clouds Few 200 ft
Windchill 48 °F
Dew Point 48 °F
Humidity 97%
Rainfall 0.00 in
Snow Depth Not available.
UV 0 out of 12
Pollen 1.50 out of 12
PM2.5 Good
Flu Activity Not available.
SPECI KGFL 170625Z AUTO 34003KT 4SM BR FEW002 06/04 A3002 RMK AO2 T00560044

More Conditions Fewer Conditions

Pressure 30.02 in
Visibility 4.0 miles
Clouds Few 200 ft
Windchill 48 °F
Dew Point 48 °F
Humidity 97%
Rainfall 0.00 in
Snow Depth Not available.
UV 0 out of 12
Pollen 1.50 out of 12
PM2.5 Good
Flu Activity Not available.
SPECI KGFL 170625Z AUTO 34003KT 4SM BR FEW002 06/04 A3002 RMK AO2 T00560044

More Conditions Fewer Conditions

10-Day Weather Forecast

Almanac

Astronomy

Sep. 17, 2014 Rise Set
Actual Time 6:35 AM EDT 7:00 PM EDT
Civil Twilight 6:06 AM EDT 7:28 PM EDT
Nautical Twilight 5:32 AM EDT 8:02 PM EDT
Astronomical Twilight 4:57 AM EDT 8:37 PM EDT
Moon 12:25 AM EDT 3:15 PM EDT
Length of Visible Light 13h 22m
Length of Day
12h 25m
Tomorrow will be 2m 58s shorter.
Last Quarter, 38% of the Moon is Illuminated
Today
Last Quarter
Sep 24
New
Oct 1
First Quarter
Oct 8
Full
Oct 15
Last Quarter

Today's Extremes

State Highs State Lows

Community

WunderPhotos

Upload Photos

1,753,970 photos uploaded!

Nearby

Air Quality

  Air Quality AQ Index Pollutant
Yesterday Good
OZONE
Yesterday Good
PM2.5
Current Good
PM2.5
Wednesday Good
OZONE
Wednesday Good
PM2.5

Snow Depth

Station Depth Elevation
No new snow has been reported.

Earthquake Activity

City Distance Mag. Time & Date
No recent earthquake activity has been reported nearby.
Minimum magnitude displayed is 2.5.

Coastal Water Temperatures

Place Temperature
No Stations Reporting

Nearby Weather Stations